sensor_id;sensor_type;location;lat;lon;timestamp;pressure;altitude;pressure_sealevel;temperature;humidity
79584;BME280;69053;57.338;18.700;2023-06-04T00:01:12;101917.84;;;10.20;65.55
79584;BME280;69053;57.338;18.700;2023-06-04T00:06:12;101913.59;;;10.17;66.55
79584;BME280;69053;57.338;18.700;2023-06-04T00:11:13;101921.09;;;10.15;66.72
79584;BME280;69053;57.338;18.700;2023-06-04T00:16:14;101916.84;;;10.12;68.21
79584;BME280;69053;57.338;18.700;2023-06-04T00:21:14;101919.31;;;10.07;68.48
79584;BME280;69053;57.338;18.700;2023-06-04T00:26:15;101917.97;;;10.03;69.79
79584;BME280;69053;57.338;18.700;2023-06-04T00:31:15;101915.78;;;9.99;69.78
79584;BME280;69053;57.338;18.700;2023-06-04T00:36:16;101923.13;;;9.98;70.63
79584;BME280;69053;57.338;18.700;2023-06-04T00:41:16;101915.69;;;9.92;70.64
79584;BME280;69053;57.338;18.700;2023-06-04T00:46:17;101907.03;;;9.88;71.72
79584;BME280;69053;57.338;18.700;2023-06-04T00:51:22;101918.47;;;9.84;71.48
79584;BME280;69053;57.338;18.700;2023-06-04T00:56:22;101915.44;;;9.79;72.55
79584;BME280;69053;57.338;18.700;2023-06-04T01:01:40;101914.97;;;9.75;72.66
79584;BME280;69053;57.338;18.700;2023-06-04T01:06:44;101918.41;;;9.69;73.53
79584;BME280;69053;57.338;18.700;2023-06-04T01:11:45;101911.81;;;9.63;73.60
79584;BME280;69053;57.338;18.700;2023-06-04T01:22:04;101918.69;;;9.51;74.41
79584;BME280;69053;57.338;18.700;2023-06-04T01:27:12;101912.25;;;9.44;74.99
79584;BME280;69053;57.338;18.700;2023-06-04T01:32:12;101911.28;;;9.36;75.33
79584;BME280;69053;57.338;18.700;2023-06-04T01:37:13;101916.09;;;9.26;75.64
79584;BME280;69053;57.338;18.700;2023-06-04T01:42:13;101912.41;;;9.19;75.84
79584;BME280;69053;57.338;18.700;2023-06-04T01:47:14;101916.88;;;9.12;76.79
79584;BME280;69053;57.338;18.700;2023-06-04T01:52:15;101909.06;;;9.09;77.04
79584;BME280;69053;57.338;18.700;2023-06-04T01:57:16;101913.16;;;9.05;77.47
79584;BME280;69053;57.338;18.700;2023-06-04T02:02:17;101917.25;;;9.00;76.89
79584;BME280;69053;57.338;18.700;2023-06-04T02:07:19;101905.69;;;8.98;77.21
79584;BME280;69053;57.338;18.700;2023-06-04T02:12:23;101911.97;;;8.99;77.00
79584;BME280;69053;57.338;18.700;2023-06-04T02:17:23;101917.25;;;9.00;77.25
79584;BME280;69053;57.338;18.700;2023-06-04T02:22:25;101926.09;;;9.03;77.06
79584;BME280;69053;57.338;18.700;2023-06-04T02:27:25;101920.66;;;9.03;76.88
79584;BME280;69053;57.338;18.700;2023-06-04T02:32:26;101912.81;;;9.08;76.07
79584;BME280;69053;57.338;18.700;2023-06-04T02:37:29;101923.31;;;9.11;76.19
79584;BME280;69053;57.338;18.700;2023-06-04T02:42:30;101928.22;;;9.15;76.56
79584;BME280;69053;57.338;18.700;2023-06-04T02:47:30;101928.53;;;9.20;77.07
79584;BME280;69053;57.338;18.700;2023-06-04T02:52:31;101930.34;;;9.28;76.50
79584;BME280;69053;57.338;18.700;2023-06-04T02:57:33;101933.03;;;9.36;76.63
79584;BME280;69053;57.338;18.700;2023-06-04T03:02:33;101929.94;;;9.48;76.09
79584;BME280;69053;57.338;18.700;2023-06-04T03:07:34;101930.91;;;9.55;75.82
79584;BME280;69053;57.338;18.700;2023-06-04T03:12:34;101935.25;;;9.64;76.23
79584;BME280;69053;57.338;18.700;2023-06-04T03:17:35;101943.72;;;9.69;76.09
79584;BME280;69053;57.338;18.700;2023-06-04T03:22:36;101947.44;;;9.76;75.56
79584;BME280;69053;57.338;18.700;2023-06-04T03:27:37;101938.66;;;9.89;75.89
79584;BME280;69053;57.338;18.700;2023-06-04T03:32:37;101943.13;;;10.05;74.96
79584;BME280;69053;57.338;18.700;2023-06-04T03:37:38;101947.03;;;10.26;74.41
79584;BME280;69053;57.338;18.700;2023-06-04T03:42:38;101950.13;;;10.46;74.43
79584;BME280;69053;57.338;18.700;2023-06-04T03:47:39;101946.03;;;10.65;72.90
79584;BME280;69053;57.338;18.700;2023-06-04T03:52:39;101950.91;;;10.84;72.50
79584;BME280;69053;57.338;18.700;2023-06-04T03:57:40;101955.63;;;11.05;72.02
79584;BME280;69053;57.338;18.700;2023-06-04T04:02:41;101948.94;;;11.23;70.86
79584;BME280;69053;57.338;18.700;2023-06-04T04:07:42;101946.84;;;11.40;69.79
79584;BME280;69053;57.338;18.700;2023-06-04T04:12:45;101955.63;;;11.57;69.46
79584;BME280;69053;57.338;18.700;2023-06-04T04:17:46;101951.81;;;11.73;68.27
79584;BME280;69053;57.338;18.700;2023-06-04T04:22:46;101951.09;;;11.86;67.80
79584;BME280;69053;57.338;18.700;2023-06-04T04:27:47;101954.84;;;11.99;67.27
79584;BME280;69053;57.338;18.700;2023-06-04T04:32:48;101954.13;;;12.12;65.98
79584;BME280;69053;57.338;18.700;2023-06-04T04:37:49;101941.63;;;12.25;65.55
79584;BME280;69053;57.338;18.700;2023-06-04T04:42:50;101945.97;;;12.41;65.25
79584;BME280;69053;57.338;18.700;2023-06-04T04:47:50;101940.78;;;12.52;65.10
79584;BME280;69053;57.338;18.700;2023-06-04T04:52:51;101938.81;;;12.68;63.96
79584;BME280;69053;57.338;18.700;2023-06-04T04:57:51;101934.69;;;12.85;63.97
79584;BME280;69053;57.338;18.700;2023-06-04T05:02:52;101944.25;;;13.03;63.22
79584;BME280;69053;57.338;18.700;2023-06-04T05:07:52;101942.22;;;13.18;62.51
79584;BME280;69053;57.338;18.700;2023-06-04T05:12:54;101941.31;;;13.39;62.48
79584;BME280;69053;57.338;18.700;2023-06-04T05:17:55;101942.63;;;13.57;61.28
79584;BME280;69053;57.338;18.700;2023-06-04T05:22:56;101940.56;;;13.72;61.09
79584;BME280;69053;57.338;18.700;2023-06-04T05:27:57;101930.91;;;13.90;60.77
79584;BME280;69053;57.338;18.700;2023-06-04T05:32:57;101938.09;;;14.11;59.48
79584;BME280;69053;57.338;18.700;2023-06-04T05:37:59;101945.66;;;14.35;59.79
79584;BME280;69053;57.338;18.700;2023-06-04T05:43:00;101949.03;;;14.51;59.08
79584;BME280;69053;57.338;18.700;2023-06-04T05:48:01;101950.75;;;14.65;57.68
79584;BME280;69053;57.338;18.700;2023-06-04T05:53:20;101948.66;;;14.67;58.39
79584;BME280;69053;57.338;18.700;2023-06-04T05:58:20;101943.16;;;14.74;57.66
79584;BME280;69053;57.338;18.700;2023-06-04T06:03:21;101948.31;;;15.09;57.48
79584;BME280;69053;57.338;18.700;2023-06-04T06:08:21;101947.56;;;15.40;56.30
79584;BME280;69053;57.338;18.700;2023-06-04T06:13:22;101935.63;;;15.66;54.32
79584;BME280;69053;57.338;18.700;2023-06-04T06:18:22;101970.56;;;15.91;52.84
79584;BME280;69053;57.338;18.700;2023-06-04T06:23:23;101943.44;;;16.01;52.47
79584;BME280;69053;57.338;18.700;2023-06-04T06:28:24;101952.38;;;16.22;51.90
79584;BME280;69053;57.338;18.700;2023-06-04T06:33:25;101955.38;;;16.45;51.52
79584;BME280;69053;57.338;18.700;2023-06-04T06:38:26;101948.50;;;16.55;51.41
79584;BME280;69053;57.338;18.700;2023-06-04T06:43:27;101953.34;;;16.78;49.67
79584;BME280;69053;57.338;18.700;2023-06-04T06:48:27;101971.50;;;16.60;50.62
79584;BME280;69053;57.338;18.700;2023-06-04T06:53:28;101973.47;;;16.53;50.63
79584;BME280;69053;57.338;18.700;2023-06-04T06:58:28;101954.84;;;16.55;50.14
79584;BME280;69053;57.338;18.700;2023-06-04T07:03:29;101961.44;;;16.73;49.91
79584;BME280;69053;57.338;18.700;2023-06-04T07:08:30;101956.69;;;16.86;50.16
79584;BME280;69053;57.338;18.700;2023-06-04T07:13:31;101962.91;;;17.00;49.22
79584;BME280;69053;57.338;18.700;2023-06-04T07:18:35;101958.59;;;17.04;48.18
79584;BME280;69053;57.338;18.700;2023-06-04T07:23:36;101956.69;;;17.23;47.72
79584;BME280;69053;57.338;18.700;2023-06-04T07:28:36;101964.41;;;17.33;47.73
79584;BME280;69053;57.338;18.700;2023-06-04T07:33:37;101963.47;;;17.58;47.30
79584;BME280;69053;57.338;18.700;2023-06-04T07:38:43;101955.97;;;17.77;46.87
79584;BME280;69053;57.338;18.700;2023-06-04T07:43:43;101947.69;;;17.95;45.65
79584;BME280;69053;57.338;18.700;2023-06-04T07:48:45;101941.72;;;17.98;45.97
79584;BME280;69053;57.338;18.700;2023-06-04T07:53:45;101947.84;;;18.12;45.66
79584;BME280;69053;57.338;18.700;2023-06-04T07:58:46;101943.53;;;18.16;43.75
79584;BME280;69053;57.338;18.700;2023-06-04T08:03:47;101932.63;;;18.22;43.62
79584;BME280;69053;57.338;18.700;2023-06-04T08:08:47;101955.78;;;18.32;44.46
79584;BME280;69053;57.338;18.700;2023-06-04T08:13:50;101962.16;;;18.68;44.06
79584;BME280;69053;57.338;18.700;2023-06-04T08:18:50;101965.75;;;19.16;44.20
79584;BME280;69053;57.338;18.700;2023-06-04T08:23:51;101969.41;;;19.45;42.39
79584;BME280;69053;57.338;18.700;2023-06-04T08:28:52;101960.91;;;19.35;41.50
79584;BME280;69053;57.338;18.700;2023-06-04T08:33:52;101962.88;;;19.23;41.93
79584;BME280;69053;57.338;18.700;2023-06-04T08:38:54;101974.44;;;19.48;42.15
79584;BME280;69053;57.338;18.700;2023-06-04T08:43:55;101986.13;;;19.79;42.05
79584;BME280;69053;57.338;18.700;2023-06-04T08:49:00;101984.53;;;20.12;41.28
79584;BME280;69053;57.338;18.700;2023-06-04T08:54:05;101986.38;;;20.07;41.17
79584;BME280;69053;57.338;18.700;2023-06-04T08:59:06;101999.53;;;19.99;42.51
79584;BME280;69053;57.338;18.700;2023-06-04T09:04:07;102009.44;;;19.83;42.23
79584;BME280;69053;57.338;18.700;2023-06-04T09:09:09;102015.97;;;19.77;41.97
79584;BME280;69053;57.338;18.700;2023-06-04T09:14:14;102031.44;;;19.78;43.29
79584;BME280;69053;57.338;18.700;2023-06-04T09:19:19;102040.72;;;19.72;44.62
79584;BME280;69053;57.338;18.700;2023-06-04T09:24:21;102049.41;;;19.52;45.34
79584;BME280;69053;57.338;18.700;2023-06-04T09:29:22;102056.53;;;19.13;46.31
79584;BME280;69053;57.338;18.700;2023-06-04T09:34:29;102058.34;;;19.19;45.95
79584;BME280;69053;57.338;18.700;2023-06-04T09:39:30;102067.25;;;19.21;44.77
79584;BME280;69053;57.338;18.700;2023-06-04T09:44:31;102069.75;;;19.10;45.54
79584;BME280;69053;57.338;18.700;2023-06-04T09:49:40;102074.75;;;18.78;46.60
79584;BME280;69053;57.338;18.700;2023-06-04T09:54:41;102083.81;;;18.13;47.77
79584;BME280;69053;57.338;18.700;2023-06-04T09:59:44;102090.41;;;17.38;48.39
79584;BME280;69053;57.338;18.700;2023-06-04T10:04:49;102091.63;;;17.23;49.86
79584;BME280;69053;57.338;18.700;2023-06-04T10:09:54;102089.41;;;17.32;48.90
79584;BME280;69053;57.338;18.700;2023-06-04T10:14:59;102100.53;;;17.99;47.32
79584;BME280;69053;57.338;18.700;2023-06-04T10:20:02;102113.78;;;17.54;47.54
79584;BME280;69053;57.338;18.700;2023-06-04T10:25:06;102122.94;;;17.04;48.95
79584;BME280;69053;57.338;18.700;2023-06-04T10:30:10;102133.84;;;16.54;49.31
79584;BME280;69053;57.338;18.700;2023-06-04T10:35:11;102130.00;;;16.61;50.13
79584;BME280;69053;57.338;18.700;2023-06-04T10:40:12;102137.06;;;16.50;50.34
79584;BME280;69053;57.338;18.700;2023-06-04T10:45:13;102141.75;;;15.98;51.00
79584;BME280;69053;57.338;18.700;2023-06-04T10:50:14;102151.69;;;15.99;51.79
79584;BME280;69053;57.338;18.700;2023-06-04T10:55:14;102156.97;;;16.01;51.50
79584;BME280;69053;57.338;18.700;2023-06-04T11:00:15;102164.22;;;15.82;52.34
79584;BME280;69053;57.338;18.700;2023-06-04T11:05:16;102175.88;;;15.44;52.99
79584;BME280;69053;57.338;18.700;2023-06-04T11:10:17;102179.91;;;15.21;53.43
79584;BME280;69053;57.338;18.700;2023-06-04T11:15:18;102183.72;;;15.33;53.52
79584;BME280;69053;57.338;18.700;2023-06-04T11:20:19;102183.69;;;15.60;52.60
79584;BME280;69053;57.338;18.700;2023-06-04T11:25:20;102197.19;;;15.55;52.53
79584;BME280;69053;57.338;18.700;2023-06-04T11:30:22;102191.31;;;15.31;52.55
79584;BME280;69053;57.338;18.700;2023-06-04T11:35:23;102205.25;;;15.16;52.52
79584;BME280;69053;57.338;18.700;2023-06-04T11:40:24;102203.16;;;15.18;52.81
79584;BME280;69053;57.338;18.700;2023-06-04T11:45:27;102220.47;;;15.32;52.91
79584;BME280;69053;57.338;18.700;2023-06-04T11:50:30;102210.72;;;15.50;52.91
79584;BME280;69053;57.338;18.700;2023-06-04T11:55:31;102218.34;;;15.61;52.83
79584;BME280;69053;57.338;18.700;2023-06-04T12:00:32;102219.81;;;15.57;53.37
79584;BME280;69053;57.338;18.700;2023-06-04T12:05:33;102220.84;;;15.69;53.66
79584;BME280;69053;57.338;18.700;2023-06-04T12:10:41;102233.94;;;15.94;53.03
79584;BME280;69053;57.338;18.700;2023-06-04T12:15:42;102221.19;;;16.20;52.46
79584;BME280;69053;57.338;18.700;2023-06-04T12:20:43;102225.38;;;16.29;52.48
79584;BME280;69053;57.338;18.700;2023-06-04T12:25:49;102231.72;;;16.23;52.96
79584;BME280;69053;57.338;18.700;2023-06-04T12:30:50;102230.09;;;16.08;53.03
79584;BME280;69053;57.338;18.700;2023-06-04T12:35:51;102232.69;;;16.48;52.62
79584;BME280;69053;57.338;18.700;2023-06-04T12:40:51;102237.16;;;17.20;51.37
79584;BME280;69053;57.338;18.700;2023-06-04T12:45:52;102238.06;;;17.89;49.09
79584;BME280;69053;57.338;18.700;2023-06-04T12:50:52;102239.91;;;17.95;48.55
79584;BME280;69053;57.338;18.700;2023-06-04T12:55:53;102233.25;;;17.59;49.40
79584;BME280;69053;57.338;18.700;2023-06-04T13:00:53;102237.47;;;17.37;50.14
79584;BME280;69053;57.338;18.700;2023-06-04T13:05:54;102252.09;;;17.62;49.45
79584;BME280;69053;57.338;18.700;2023-06-04T13:10:55;102249.88;;;17.71;49.00
79584;BME280;69053;57.338;18.700;2023-06-04T13:15:56;102238.44;;;17.93;48.15
79584;BME280;69053;57.338;18.700;2023-06-04T13:20:57;102245.75;;;17.80;47.91
79584;BME280;69053;57.338;18.700;2023-06-04T13:25:57;102248.41;;;17.94;47.93
79584;BME280;69053;57.338;18.700;2023-06-04T13:30:58;102243.03;;;18.54;47.44
79584;BME280;69053;57.338;18.700;2023-06-04T13:35:59;102245.28;;;19.06;45.84
79584;BME280;69053;57.338;18.700;2023-06-04T13:40:59;102261.94;;;18.69;46.29
79584;BME280;69053;57.338;18.700;2023-06-04T13:46:00;102255.25;;;18.47;46.84
79584;BME280;69053;57.338;18.700;2023-06-04T13:51:00;102250.44;;;18.72;46.66
79584;BME280;69053;57.338;18.700;2023-06-04T13:56:01;102247.53;;;18.67;46.76
79584;BME280;69053;57.338;18.700;2023-06-04T14:01:02;102249.88;;;18.52;46.39
79584;BME280;69053;57.338;18.700;2023-06-04T14:06:02;102253.41;;;18.04;46.76
79584;BME280;69053;57.338;18.700;2023-06-04T14:11:03;102250.78;;;17.90;47.29
79584;BME280;69053;57.338;18.700;2023-06-04T14:16:04;102251.47;;;18.04;47.74
79584;BME280;69053;57.338;18.700;2023-06-04T14:21:05;102251.28;;;18.24;47.38
79584;BME280;69053;57.338;18.700;2023-06-04T14:26:05;102257.16;;;18.77;47.10
79584;BME280;69053;57.338;18.700;2023-06-04T14:31:06;102258.44;;;19.23;46.02
79584;BME280;69053;57.338;18.700;2023-06-04T14:36:07;102259.88;;;19.91;44.65
79584;BME280;69053;57.338;18.700;2023-06-04T14:41:07;102266.44;;;19.55;44.92
79584;BME280;69053;57.338;18.700;2023-06-04T14:46:08;102273.81;;;18.88;45.76
79584;BME280;69053;57.338;18.700;2023-06-04T14:51:08;102270.56;;;19.22;44.74
79584;BME280;69053;57.338;18.700;2023-06-04T14:56:09;102273.50;;;19.51;44.41
79584;BME280;69053;57.338;18.700;2023-06-04T15:01:10;102271.47;;;19.58;43.58
79584;BME280;69053;57.338;18.700;2023-06-04T15:06:10;102264.03;;;19.70;43.61
79584;BME280;69053;57.338;18.700;2023-06-04T15:11:11;102268.47;;;19.71;43.21
79584;BME280;69053;57.338;18.700;2023-06-04T15:16:12;102253.50;;;19.79;43.00
79584;BME280;69053;57.338;18.700;2023-06-04T15:21:12;102261.84;;;19.48;43.38
79584;BME280;69053;57.338;18.700;2023-06-04T15:26:13;102262.38;;;19.81;43.39
79584;BME280;69053;57.338;18.700;2023-06-04T15:31:14;102267.13;;;20.33;42.73
79584;BME280;69053;57.338;18.700;2023-06-04T15:36:15;102264.09;;;20.46;42.01
79584;BME280;69053;57.338;18.700;2023-06-04T15:41:15;102258.03;;;20.20;42.20
79584;BME280;69053;57.338;18.700;2023-06-04T15:46:16;102259.63;;;20.45;41.66
79584;BME280;69053;57.338;18.700;2023-06-04T15:51:16;102261.28;;;20.05;42.24
79584;BME280;69053;57.338;18.700;2023-06-04T15:56:17;102261.16;;;20.12;42.40
79584;BME280;69053;57.338;18.700;2023-06-04T16:01:19;102267.81;;;19.88;42.60
79584;BME280;69053;57.338;18.700;2023-06-04T16:06:20;102265.47;;;19.73;42.82
79584;BME280;69053;57.338;18.700;2023-06-04T16:11:20;102267.91;;;19.81;42.77
79584;BME280;69053;57.338;18.700;2023-06-04T16:16:21;102273.63;;;19.67;42.38
79584;BME280;69053;57.338;18.700;2023-06-04T16:21:22;102259.66;;;19.39;42.41
79584;BME280;69053;57.338;18.700;2023-06-04T16:26:22;102270.16;;;19.72;42.17
79584;BME280;69053;57.338;18.700;2023-06-04T16:31:23;102267.53;;;19.11;42.74
79584;BME280;69053;57.338;18.700;2023-06-04T16:36:23;102262.59;;;19.02;43.23
79584;BME280;69053;57.338;18.700;2023-06-04T16:41:24;102263.88;;;19.29;41.69
79584;BME280;69053;57.338;18.700;2023-06-04T16:46:26;102264.38;;;18.78;42.82
79584;BME280;69053;57.338;18.700;2023-06-04T16:51:27;102268.91;;;18.90;42.27
79584;BME280;69053;57.338;18.700;2023-06-04T16:56:30;102264.78;;;18.63;42.63
79584;BME280;69053;57.338;18.700;2023-06-04T17:01:31;102269.31;;;18.57;42.96
79584;BME280;69053;57.338;18.700;2023-06-04T17:06:31;102264.25;;;18.72;42.40
79584;BME280;69053;57.338;18.700;2023-06-04T17:11:32;102267.84;;;18.91;42.25
79584;BME280;69053;57.338;18.700;2023-06-04T17:16:33;102266.88;;;18.30;43.04
79584;BME280;69053;57.338;18.700;2023-06-04T17:21:36;102280.28;;;17.33;45.16
79584;BME280;69053;57.338;18.700;2023-06-04T17:26:38;102274.72;;;17.14;46.18
79584;BME280;69053;57.338;18.700;2023-06-04T17:31:38;102282.28;;;17.19;45.73
79584;BME280;69053;57.338;18.700;2023-06-04T17:36:39;102280.00;;;17.16;45.64
79584;BME280;69053;57.338;18.700;2023-06-04T17:41:40;102290.03;;;16.45;46.54
79584;BME280;69053;57.338;18.700;2023-06-04T17:46:41;102280.06;;;15.79;47.86
79584;BME280;69053;57.338;18.700;2023-06-04T17:51:41;102289.72;;;15.28;48.94
79584;BME280;69053;57.338;18.700;2023-06-04T17:56:42;102294.94;;;14.96;49.89
79584;BME280;69053;57.338;18.700;2023-06-04T18:01:42;102291.16;;;14.55;50.36
79584;BME280;69053;57.338;18.700;2023-06-04T18:06:43;102300.34;;;14.34;51.84
79584;BME280;69053;57.338;18.700;2023-06-04T18:11:43;102293.13;;;14.26;51.94
79584;BME280;69053;57.338;18.700;2023-06-04T18:16:44;102297.50;;;13.86;52.22
79584;BME280;69053;57.338;18.700;2023-06-04T18:21:44;102301.16;;;13.72;52.69
79584;BME280;69053;57.338;18.700;2023-06-04T18:26:45;102303.88;;;13.43;53.42
79584;BME280;69053;57.338;18.700;2023-06-04T18:31:45;102296.09;;;13.25;53.98
79584;BME280;69053;57.338;18.700;2023-06-04T18:36:50;102298.81;;;13.04;54.45
79584;BME280;69053;57.338;18.700;2023-06-04T18:41:53;102304.72;;;12.86;55.25
79584;BME280;69053;57.338;18.700;2023-06-04T18:46:55;102300.50;;;12.68;55.46
79584;BME280;69053;57.338;18.700;2023-06-04T18:51:55;102304.59;;;12.43;56.41
79584;BME280;69053;57.338;18.700;2023-06-04T18:56:56;102306.41;;;12.21;57.00
79584;BME280;69053;57.338;18.700;2023-06-04T19:01:57;102301.19;;;11.96;57.67
79584;BME280;69053;57.338;18.700;2023-06-04T19:06:57;102305.16;;;11.70;58.48
79584;BME280;69053;57.338;18.700;2023-06-04T19:11:58;102311.50;;;11.48;59.20
79584;BME280;69053;57.338;18.700;2023-06-04T19:17:00;102312.47;;;11.32;59.63
79584;BME280;69053;57.338;18.700;2023-06-04T19:22:03;102323.66;;;11.14;60.16
79584;BME280;69053;57.338;18.700;2023-06-04T19:27:03;102311.19;;;10.96;60.64
79584;BME280;69053;57.338;18.700;2023-06-04T19:32:04;102323.38;;;10.77;61.04
79584;BME280;69053;57.338;18.700;2023-06-04T19:37:06;102324.66;;;10.58;61.46
79584;BME280;69053;57.338;18.700;2023-06-04T19:42:07;102333.44;;;10.37;61.90
79584;BME280;69053;57.338;18.700;2023-06-04T19:47:08;102317.97;;;10.21;62.79
79584;BME280;69053;57.338;18.700;2023-06-04T19:52:08;102325.47;;;10.03;63.31
79584;BME280;69053;57.338;18.700;2023-06-04T19:57:09;102336.03;;;9.89;63.85
79584;BME280;69053;57.338;18.700;2023-06-04T20:02:10;102340.31;;;9.75;63.71
79584;BME280;69053;57.338;18.700;2023-06-04T20:07:11;102345.91;;;9.66;63.85
79584;BME280;69053;57.338;18.700;2023-06-04T20:12:11;102357.66;;;9.50;63.82
79584;BME280;69053;57.338;18.700;2023-06-04T20:17:12;102361.19;;;9.34;64.79
79584;BME280;69053;57.338;18.700;2023-06-04T20:22:13;102350.13;;;9.19;65.46
79584;BME280;69053;57.338;18.700;2023-06-04T20:27:14;102346.53;;;9.10;65.08
79584;BME280;69053;57.338;18.700;2023-06-04T20:32:17;102347.50;;;8.93;65.72
79584;BME280;69053;57.338;18.700;2023-06-04T20:37:17;102355.59;;;8.76;66.48
79584;BME280;69053;57.338;18.700;2023-06-04T20:42:18;102343.66;;;8.61;66.18
79584;BME280;69053;57.338;18.700;2023-06-04T20:47:19;102354.28;;;8.46;66.67
79584;BME280;69053;57.338;18.700;2023-06-04T20:52:20;102340.09;;;8.34;67.44
79584;BME280;69053;57.338;18.700;2023-06-04T20:57:20;102355.66;;;8.24;67.47
79584;BME280;69053;57.338;18.700;2023-06-04T21:02:21;102360.19;;;8.15;67.97
79584;BME280;69053;57.338;18.700;2023-06-04T21:07:22;102359.91;;;8.00;68.04
79584;BME280;69053;57.338;18.700;2023-06-04T21:12:22;102352.66;;;7.83;68.80
79584;BME280;69053;57.338;18.700;2023-06-04T21:17:23;102362.53;;;7.66;68.51
79584;BME280;69053;57.338;18.700;2023-06-04T21:22:24;102359.84;;;7.48;69.16
79584;BME280;69053;57.338;18.700;2023-06-04T21:27:24;102362.31;;;7.41;70.02
79584;BME280;69053;57.338;18.700;2023-06-04T21:32:25;102362.47;;;7.40;70.31
79584;BME280;69053;57.338;18.700;2023-06-04T21:37:25;102363.06;;;7.33;70.36
79584;BME280;69053;57.338;18.700;2023-06-04T21:42:26;102349.50;;;7.16;70.79
79584;BME280;69053;57.338;18.700;2023-06-04T21:47:26;102343.91;;;6.99;70.57
79584;BME280;69053;57.338;18.700;2023-06-04T21:52:27;102354.56;;;6.83;70.56
79584;BME280;69053;57.338;18.700;2023-06-04T21:57:28;102354.50;;;6.65;71.01
79584;BME280;69053;57.338;18.700;2023-06-04T22:02:28;102352.44;;;6.49;70.92
79584;BME280;69053;57.338;18.700;2023-06-04T22:07:28;102358.50;;;6.33;70.41
79584;BME280;69053;57.338;18.700;2023-06-04T22:12:29;102349.28;;;6.16;70.65
79584;BME280;69053;57.338;18.700;2023-06-04T22:17:30;102350.47;;;6.04;70.88
79584;BME280;69053;57.338;18.700;2023-06-04T22:22:30;102353.44;;;5.91;71.16
79584;BME280;69053;57.338;18.700;2023-06-04T22:27:31;102353.75;;;5.78;71.54
79584;BME280;69053;57.338;18.700;2023-06-04T22:32:31;102347.78;;;5.64;71.93
79584;BME280;69053;57.338;18.700;2023-06-04T22:37:32;102342.50;;;5.53;71.83
79584;BME280;69053;57.338;18.700;2023-06-04T22:42:32;102355.16;;;5.43;72.63
79584;BME280;69053;57.338;18.700;2023-06-04T22:47:33;102344.94;;;5.37;72.75
79584;BME280;69053;57.338;18.700;2023-06-04T22:52:33;102343.06;;;5.28;72.39
79584;BME280;69053;57.338;18.700;2023-06-04T22:57:34;102338.81;;;5.15;72.77
79584;BME280;69053;57.338;18.700;2023-06-04T23:02:35;102342.34;;;5.06;72.77
79584;BME280;69053;57.338;18.700;2023-06-04T23:07:36;102339.09;;;5.02;73.12
79584;BME280;69053;57.338;18.700;2023-06-04T23:12:36;102338.22;;;5.02;73.20
79584;BME280;69053;57.338;18.700;2023-06-04T23:17:37;102339.63;;;4.96;73.43
79584;BME280;69053;57.338;18.700;2023-06-04T23:22:37;102334.94;;;4.88;73.54
79584;BME280;69053;57.338;18.700;2023-06-04T23:27:38;102334.75;;;4.80;73.70
79584;BME280;69053;57.338;18.700;2023-06-04T23:32:38;102332.47;;;4.66;74.01
79584;BME280;69053;57.338;18.700;2023-06-04T23:37:39;102331.41;;;4.57;74.59
79584;BME280;69053;57.338;18.700;2023-06-04T23:42:40;102333.53;;;4.54;74.69
79584;BME280;69053;57.338;18.700;2023-06-04T23:47:40;102338.94;;;4.54;75.17
79584;BME280;69053;57.338;18.700;2023-06-04T23:52:41;102324.72;;;4.51;75.08
79584;BME280;69053;57.338;18.700;2023-06-04T23:57:41;102330.25;;;4.50;75.20
